sensor_id;sensor_type;location;lat;lon;timestamp;temperature;humidity
816;DHT22;25928;51.062;13.752;2022-12-20T00:01:13;2.80;1.00
816;DHT22;25928;51.062;13.752;2022-12-20T00:03:40;2.80;1.00
816;DHT22;25928;51.062;13.752;2022-12-20T00:06:06;2.80;1.00
816;DHT22;25928;51.062;13.752;2022-12-20T00:08:32;2.80;1.00
816;DHT22;25928;51.062;13.752;2022-12-20T00:11:01;2.70;1.00
816;DHT22;25928;51.062;13.752;2022-12-20T00:13:27;2.70;1.00
816;DHT22;25928;51.062;13.752;2022-12-20T00:16:23;2.70;1.00
816;DHT22;25928;51.062;13.752;2022-12-20T00:18:54;2.70;1.00
816;DHT22;25928;51.062;13.752;2022-12-20T00:21:21;2.70;1.00
816;DHT22;25928;51.062;13.752;2022-12-20T00:23:47;2.70;1.00
816;DHT22;25928;51.062;13.752;2022-12-20T00:26:19;2.80;1.00
816;DHT22;25928;51.062;13.752;2022-12-20T00:28:45;2.80;1.00
816;DHT22;25928;51.062;13.752;2022-12-20T00:31:13;2.80;1.00
816;DHT22;25928;51.062;13.752;2022-12-20T00:33:40;2.80;1.00
816;DHT22;25928;51.062;13.752;2022-12-20T00:36:07;2.80;1.00
816;DHT22;25928;51.062;13.752;2022-12-20T00:38:34;2.80;1.00
816;DHT22;25928;51.062;13.752;2022-12-20T00:43:25;2.80;1.00
816;DHT22;25928;51.062;13.752;2022-12-20T00:45:51;2.90;1.00
816;DHT22;25928;51.062;13.752;2022-12-20T00:48:16;2.80;1.00
816;DHT22;25928;51.062;13.752;2022-12-20T00:50:42;2.90;1.00
816;DHT22;25928;51.062;13.752;2022-12-20T00:53:07;2.80;1.00
816;DHT22;25928;51.062;13.752;2022-12-20T00:55:39;2.80;1.00
816;DHT22;25928;51.062;13.752;2022-12-20T00:58:05;2.80;1.00
816;DHT22;25928;51.062;13.752;2022-12-20T01:00:31;2.70;1.00
816;DHT22;25928;51.062;13.752;2022-12-20T01:02:56;2.80;1.00
816;DHT22;25928;51.062;13.752;2022-12-20T01:05:22;2.80;1.00
816;DHT22;25928;51.062;13.752;2022-12-20T01:07:47;2.80;1.00
816;DHT22;25928;51.062;13.752;2022-12-20T01:10:13;2.90;1.00
816;DHT22;25928;51.062;13.752;2022-12-20T01:12:39;2.90;1.00
816;DHT22;25928;51.062;13.752;2022-12-20T01:15:05;2.90;1.00
816;DHT22;25928;51.062;13.752;2022-12-20T01:17:31;3.00;1.00
816;DHT22;25928;51.062;13.752;2022-12-20T01:19:56;3.10;1.00
816;DHT22;25928;51.062;13.752;2022-12-20T01:22:22;3.10;1.00
816;DHT22;25928;51.062;13.752;2022-12-20T01:24:48;3.20;1.00
816;DHT22;25928;51.062;13.752;2022-12-20T01:27:13;3.10;1.00
816;DHT22;25928;51.062;13.752;2022-12-20T01:29:39;3.20;1.00
816;DHT22;25928;51.062;13.752;2022-12-20T01:32:04;3.20;1.00
816;DHT22;25928;51.062;13.752;2022-12-20T01:34:30;3.20;1.00
816;DHT22;25928;51.062;13.752;2022-12-20T01:36:55;3.30;1.00
816;DHT22;25928;51.062;13.752;2022-12-20T01:39:21;3.40;1.00
816;DHT22;25928;51.062;13.752;2022-12-20T01:41:47;3.40;1.00
816;DHT22;25928;51.062;13.752;2022-12-20T01:46:41;3.40;1.00
816;DHT22;25928;51.062;13.752;2022-12-20T01:52:06;3.30;1.00
816;DHT22;25928;51.062;13.752;2022-12-20T01:54:37;3.30;1.00
816;DHT22;25928;51.062;13.752;2022-12-20T01:57:17;3.30;1.00
816;DHT22;25928;51.062;13.752;2022-12-20T01:59:45;3.30;1.00
816;DHT22;25928;51.062;13.752;2022-12-20T02:02:13;3.30;1.00
816;DHT22;25928;51.062;13.752;2022-12-20T02:04:39;3.30;1.00
816;DHT22;25928;51.062;13.752;2022-12-20T02:07:06;3.30;1.00
816;DHT22;25928;51.062;13.752;2022-12-20T02:09:34;3.40;1.00
816;DHT22;25928;51.062;13.752;2022-12-20T02:12:19;3.40;1.00
816;DHT22;25928;51.062;13.752;2022-12-20T02:20:47;3.50;1.00
816;DHT22;25928;51.062;13.752;2022-12-20T02:26:27;3.60;1.00
816;DHT22;25928;51.062;13.752;2022-12-20T02:34:44;3.60;1.00
816;DHT22;25928;51.062;13.752;2022-12-20T02:37:10;3.50;1.00
816;DHT22;25928;51.062;13.752;2022-12-20T02:39:39;3.50;1.00
816;DHT22;25928;51.062;13.752;2022-12-20T02:42:17;3.50;1.00
816;DHT22;25928;51.062;13.752;2022-12-20T02:44:48;3.50;1.00
816;DHT22;25928;51.062;13.752;2022-12-20T02:47:39;3.60;1.00
816;DHT22;25928;51.062;13.752;2022-12-20T02:50:06;3.50;1.00
816;DHT22;25928;51.062;13.752;2022-12-20T02:52:33;3.50;1.00
816;DHT22;25928;51.062;13.752;2022-12-20T02:54:59;3.50;1.00
816;DHT22;25928;51.062;13.752;2022-12-20T02:57:39;3.40;1.00
816;DHT22;25928;51.062;13.752;2022-12-20T03:00:14;3.40;1.00
816;DHT22;25928;51.062;13.752;2022-12-20T03:02:41;3.50;1.00
816;DHT22;25928;51.062;13.752;2022-12-20T03:05:26;3.40;1.00
816;DHT22;25928;51.062;13.752;2022-12-20T03:07:53;3.40;1.00
816;DHT22;25928;51.062;13.752;2022-12-20T03:10:20;3.40;1.00
816;DHT22;25928;51.062;13.752;2022-12-20T03:12:46;3.40;1.00
816;DHT22;25928;51.062;13.752;2022-12-20T03:15:12;3.40;1.00
816;DHT22;25928;51.062;13.752;2022-12-20T03:17:38;3.50;1.00
816;DHT22;25928;51.062;13.752;2022-12-20T03:20:05;3.40;1.00
816;DHT22;25928;51.062;13.752;2022-12-20T03:22:32;3.40;1.00
816;DHT22;25928;51.062;13.752;2022-12-20T03:24:58;3.40;1.00
816;DHT22;25928;51.062;13.752;2022-12-20T03:27:24;3.50;1.00
816;DHT22;25928;51.062;13.752;2022-12-20T03:29:51;3.50;1.00
816;DHT22;25928;51.062;13.752;2022-12-20T03:32:17;3.50;1.00
816;DHT22;25928;51.062;13.752;2022-12-20T03:34:43;3.50;1.00
816;DHT22;25928;51.062;13.752;2022-12-20T03:37:08;3.60;1.00
816;DHT22;25928;51.062;13.752;2022-12-20T03:39:34;3.60;1.00
816;DHT22;25928;51.062;13.752;2022-12-20T03:42:00;3.60;1.00
816;DHT22;25928;51.062;13.752;2022-12-20T03:44:25;3.60;1.00
816;DHT22;25928;51.062;13.752;2022-12-20T03:46:51;3.70;1.00
816;DHT22;25928;51.062;13.752;2022-12-20T03:49:16;3.70;1.00
816;DHT22;25928;51.062;13.752;2022-12-20T03:51:43;3.80;1.00
816;DHT22;25928;51.062;13.752;2022-12-20T03:54:08;3.80;1.00
816;DHT22;25928;51.062;13.752;2022-12-20T03:56:34;3.60;1.00
816;DHT22;25928;51.062;13.752;2022-12-20T03:58:59;3.60;1.00
816;DHT22;25928;51.062;13.752;2022-12-20T04:01:27;3.70;1.00
816;DHT22;25928;51.062;13.752;2022-12-20T04:03:53;3.70;1.00
816;DHT22;25928;51.062;13.752;2022-12-20T04:06:19;3.70;1.00
816;DHT22;25928;51.062;13.752;2022-12-20T04:08:46;3.70;1.00
816;DHT22;25928;51.062;13.752;2022-12-20T04:11:12;3.60;1.00
816;DHT22;25928;51.062;13.752;2022-12-20T04:13:41;3.60;1.00
816;DHT22;25928;51.062;13.752;2022-12-20T04:16:07;3.60;1.00
816;DHT22;25928;51.062;13.752;2022-12-20T04:18:33;3.10;1.00
816;DHT22;25928;51.062;13.752;2022-12-20T04:21:02;3.70;1.00
816;DHT22;25928;51.062;13.752;2022-12-20T04:23:28;3.70;1.00
816;DHT22;25928;51.062;13.752;2022-12-20T04:25:54;3.80;1.00
816;DHT22;25928;51.062;13.752;2022-12-20T04:28:20;3.80;1.00
816;DHT22;25928;51.062;13.752;2022-12-20T04:30:46;3.80;1.00
816;DHT22;25928;51.062;13.752;2022-12-20T04:33:11;3.80;1.00
816;DHT22;25928;51.062;13.752;2022-12-20T04:35:37;3.70;1.00
816;DHT22;25928;51.062;13.752;2022-12-20T04:38:03;3.70;1.00
816;DHT22;25928;51.062;13.752;2022-12-20T04:40:28;3.70;1.00
816;DHT22;25928;51.062;13.752;2022-12-20T04:42:55;3.70;1.00
816;DHT22;25928;51.062;13.752;2022-12-20T04:45:21;3.70;1.00
816;DHT22;25928;51.062;13.752;2022-12-20T04:47:46;3.80;1.00
816;DHT22;25928;51.062;13.752;2022-12-20T04:50:12;3.80;1.00
816;DHT22;25928;51.062;13.752;2022-12-20T04:52:38;3.70;1.00
816;DHT22;25928;51.062;13.752;2022-12-20T04:55:22;3.60;1.00
816;DHT22;25928;51.062;13.752;2022-12-20T04:57:47;3.70;1.00
816;DHT22;25928;51.062;13.752;2022-12-20T05:00:13;3.70;1.00
816;DHT22;25928;51.062;13.752;2022-12-20T05:02:40;3.70;1.00
816;DHT22;25928;51.062;13.752;2022-12-20T05:05:06;3.90;1.00
816;DHT22;25928;51.062;13.752;2022-12-20T05:07:31;3.80;1.00
816;DHT22;25928;51.062;13.752;2022-12-20T05:09:57;3.80;1.00
816;DHT22;25928;51.062;13.752;2022-12-20T05:12:23;4.00;1.00
816;DHT22;25928;51.062;13.752;2022-12-20T05:14:48;4.00;1.00
816;DHT22;25928;51.062;13.752;2022-12-20T05:17:14;4.00;1.00
816;DHT22;25928;51.062;13.752;2022-12-20T05:19:39;3.90;1.00
816;DHT22;25928;51.062;13.752;2022-12-20T05:22:05;4.00;1.00
816;DHT22;25928;51.062;13.752;2022-12-20T05:24:49;4.00;1.00
816;DHT22;25928;51.062;13.752;2022-12-20T05:27:33;3.90;1.00
816;DHT22;25928;51.062;13.752;2022-12-20T05:29:59;4.00;1.00
816;DHT22;25928;51.062;13.752;2022-12-20T05:32:24;4.00;1.00
816;DHT22;25928;51.062;13.752;2022-12-20T05:34:50;4.00;1.00
816;DHT22;25928;51.062;13.752;2022-12-20T05:37:16;3.90;1.00
816;DHT22;25928;51.062;13.752;2022-12-20T05:39:41;4.00;1.00
816;DHT22;25928;51.062;13.752;2022-12-20T05:42:07;3.90;1.00
816;DHT22;25928;51.062;13.752;2022-12-20T05:44:32;3.90;1.00
816;DHT22;25928;51.062;13.752;2022-12-20T05:46:59;3.90;1.00
816;DHT22;25928;51.062;13.752;2022-12-20T05:49:24;3.90;1.00
816;DHT22;25928;51.062;13.752;2022-12-20T05:51:50;3.90;1.00
816;DHT22;25928;51.062;13.752;2022-12-20T05:54:15;3.90;1.00
816;DHT22;25928;51.062;13.752;2022-12-20T05:56:41;3.90;1.00
816;DHT22;25928;51.062;13.752;2022-12-20T05:59:07;3.90;1.00
816;DHT22;25928;51.062;13.752;2022-12-20T06:01:33;4.00;1.00
816;DHT22;25928;51.062;13.752;2022-12-20T06:03:59;4.00;1.00
816;DHT22;25928;51.062;13.752;2022-12-20T06:06:25;4.00;1.00
816;DHT22;25928;51.062;13.752;2022-12-20T06:08:50;4.00;1.00
816;DHT22;25928;51.062;13.752;2022-12-20T06:11:16;4.00;1.00
816;DHT22;25928;51.062;13.752;2022-12-20T06:13:42;4.00;1.00
816;DHT22;25928;51.062;13.752;2022-12-20T06:16:07;4.00;1.00
816;DHT22;25928;51.062;13.752;2022-12-20T06:18:33;4.00;1.00
816;DHT22;25928;51.062;13.752;2022-12-20T06:20:58;4.00;1.00
816;DHT22;25928;51.062;13.752;2022-12-20T06:23:24;4.00;1.00
816;DHT22;25928;51.062;13.752;2022-12-20T06:25:50;4.00;1.00
816;DHT22;25928;51.062;13.752;2022-12-20T06:28:15;4.00;1.00
816;DHT22;25928;51.062;13.752;2022-12-20T06:30:54;4.00;1.00
816;DHT22;25928;51.062;13.752;2022-12-20T06:33:20;4.10;1.00
816;DHT22;25928;51.062;13.752;2022-12-20T06:35:46;4.10;1.00
816;DHT22;25928;51.062;13.752;2022-12-20T06:38:13;4.00;1.00
816;DHT22;25928;51.062;13.752;2022-12-20T06:40:39;4.00;1.00
816;DHT22;25928;51.062;13.752;2022-12-20T06:43:04;4.10;1.00
816;DHT22;25928;51.062;13.752;2022-12-20T06:45:30;4.00;1.00
816;DHT22;25928;51.062;13.752;2022-12-20T06:47:56;4.00;1.00
816;DHT22;25928;51.062;13.752;2022-12-20T06:50:22;4.00;1.00
816;DHT22;25928;51.062;13.752;2022-12-20T06:52:48;4.10;1.00
816;DHT22;25928;51.062;13.752;2022-12-20T06:55:13;4.10;1.00
816;DHT22;25928;51.062;13.752;2022-12-20T06:57:39;4.00;1.00
816;DHT22;25928;51.062;13.752;2022-12-20T07:00:06;4.00;1.00
816;DHT22;25928;51.062;13.752;2022-12-20T07:02:33;4.00;1.00
816;DHT22;25928;51.062;13.752;2022-12-20T07:04:58;4.10;1.00
816;DHT22;25928;51.062;13.752;2022-12-20T07:07:24;4.00;1.00
816;DHT22;25928;51.062;13.752;2022-12-20T07:09:50;4.00;1.00
816;DHT22;25928;51.062;13.752;2022-12-20T07:12:15;3.90;1.00
816;DHT22;25928;51.062;13.752;2022-12-20T07:14:42;4.00;1.00
816;DHT22;25928;51.062;13.752;2022-12-20T07:17:07;4.00;1.00
816;DHT22;25928;51.062;13.752;2022-12-20T07:19:34;4.00;1.00
816;DHT22;25928;51.062;13.752;2022-12-20T07:22:01;4.00;1.00
816;DHT22;25928;51.062;13.752;2022-12-20T07:24:26;4.00;1.00
816;DHT22;25928;51.062;13.752;2022-12-20T07:26:52;4.00;1.00
816;DHT22;25928;51.062;13.752;2022-12-20T07:29:17;3.90;1.00
816;DHT22;25928;51.062;13.752;2022-12-20T07:31:43;3.90;1.00
816;DHT22;25928;51.062;13.752;2022-12-20T07:34:09;4.00;1.00
816;DHT22;25928;51.062;13.752;2022-12-20T07:36:35;4.00;1.00
816;DHT22;25928;51.062;13.752;2022-12-20T07:39:01;4.00;1.00
816;DHT22;25928;51.062;13.752;2022-12-20T07:41:26;4.00;1.00
816;DHT22;25928;51.062;13.752;2022-12-20T07:43:52;3.90;1.00
816;DHT22;25928;51.062;13.752;2022-12-20T07:46:18;4.00;1.00
816;DHT22;25928;51.062;13.752;2022-12-20T07:48:43;4.00;1.00
816;DHT22;25928;51.062;13.752;2022-12-20T07:51:13;4.10;1.00
816;DHT22;25928;51.062;13.752;2022-12-20T07:53:42;4.10;1.00
816;DHT22;25928;51.062;13.752;2022-12-20T07:56:10;4.10;1.00
816;DHT22;25928;51.062;13.752;2022-12-20T07:58:38;4.00;1.00
816;DHT22;25928;51.062;13.752;2022-12-20T08:01:05;4.20;1.00
816;DHT22;25928;51.062;13.752;2022-12-20T08:03:37;4.10;1.00
816;DHT22;25928;51.062;13.752;2022-12-20T08:06:05;4.20;1.00
816;DHT22;25928;51.062;13.752;2022-12-20T08:08:33;4.10;1.00
816;DHT22;25928;51.062;13.752;2022-12-20T08:11:01;4.10;1.00
816;DHT22;25928;51.062;13.752;2022-12-20T08:13:28;4.10;1.00
816;DHT22;25928;51.062;13.752;2022-12-20T08:15:53;4.10;1.00
816;DHT22;25928;51.062;13.752;2022-12-20T08:18:19;4.20;1.00
816;DHT22;25928;51.062;13.752;2022-12-20T08:20:45;4.20;1.00
816;DHT22;25928;51.062;13.752;2022-12-20T08:23:10;4.20;1.00
816;DHT22;25928;51.062;13.752;2022-12-20T08:25:36;4.30;1.00
816;DHT22;25928;51.062;13.752;2022-12-20T08:28:01;4.30;1.00
816;DHT22;25928;51.062;13.752;2022-12-20T08:30:28;4.30;1.00
816;DHT22;25928;51.062;13.752;2022-12-20T08:32:54;4.20;1.00
816;DHT22;25928;51.062;13.752;2022-12-20T08:35:20;4.30;1.00
816;DHT22;25928;51.062;13.752;2022-12-20T08:37:46;4.20;1.00
816;DHT22;25928;51.062;13.752;2022-12-20T08:40:13;4.30;1.00
816;DHT22;25928;51.062;13.752;2022-12-20T08:42:39;4.30;1.00
816;DHT22;25928;51.062;13.752;2022-12-20T08:45:05;4.20;1.00
816;DHT22;25928;51.062;13.752;2022-12-20T08:47:30;4.20;1.00
816;DHT22;25928;51.062;13.752;2022-12-20T08:49:56;4.00;1.00
816;DHT22;25928;51.062;13.752;2022-12-20T08:52:21;4.10;1.00
816;DHT22;25928;51.062;13.752;2022-12-20T08:54:47;4.00;1.00
816;DHT22;25928;51.062;13.752;2022-12-20T08:57:12;4.00;1.00
816;DHT22;25928;51.062;13.752;2022-12-20T08:59:38;4.00;1.00
816;DHT22;25928;51.062;13.752;2022-12-20T09:02:04;4.00;1.00
816;DHT22;25928;51.062;13.752;2022-12-20T09:04:30;4.00;1.00
816;DHT22;25928;51.062;13.752;2022-12-20T09:06:56;4.00;1.00
816;DHT22;25928;51.062;13.752;2022-12-20T09:09:22;4.10;1.00
816;DHT22;25928;51.062;13.752;2022-12-20T09:11:48;4.20;1.00
816;DHT22;25928;51.062;13.752;2022-12-20T09:14:13;4.20;1.00
816;DHT22;25928;51.062;13.752;2022-12-20T09:16:39;4.30;1.00
816;DHT22;25928;51.062;13.752;2022-12-20T09:19:04;4.40;1.00
816;DHT22;25928;51.062;13.752;2022-12-20T09:21:30;4.40;1.00
816;DHT22;25928;51.062;13.752;2022-12-20T09:23:56;4.40;1.00
816;DHT22;25928;51.062;13.752;2022-12-20T09:26:23;4.50;1.00
816;DHT22;25928;51.062;13.752;2022-12-20T09:28:49;4.50;1.00
816;DHT22;25928;51.062;13.752;2022-12-20T09:31:20;4.50;1.00
816;DHT22;25928;51.062;13.752;2022-12-20T09:33:46;4.60;1.00
816;DHT22;25928;51.062;13.752;2022-12-20T09:36:18;4.70;1.00
816;DHT22;25928;51.062;13.752;2022-12-20T09:38:45;4.70;1.00
816;DHT22;25928;51.062;13.752;2022-12-20T09:43:51;4.90;1.00
816;DHT22;25928;51.062;13.752;2022-12-20T09:46:17;4.90;1.00
816;DHT22;25928;51.062;13.752;2022-12-20T09:48:44;4.90;1.00
816;DHT22;25928;51.062;13.752;2022-12-20T09:51:42;5.00;1.00
816;DHT22;25928;51.062;13.752;2022-12-20T09:57:08;5.00;1.00
816;DHT22;25928;51.062;13.752;2022-12-20T09:59:40;5.10;1.00
816;DHT22;25928;51.062;13.752;2022-12-20T10:02:12;5.20;1.00
816;DHT22;25928;51.062;13.752;2022-12-20T10:04:39;5.30;1.00
816;DHT22;25928;51.062;13.752;2022-12-20T10:15:51;5.40;1.00
816;DHT22;25928;51.062;13.752;2022-12-20T10:21:35;5.20;1.00
816;DHT22;25928;51.062;13.752;2022-12-20T10:24:09;5.20;1.00
816;DHT22;25928;51.062;13.752;2022-12-20T10:26:36;5.30;1.00
816;DHT22;25928;51.062;13.752;2022-12-20T10:29:01;5.20;1.00
816;DHT22;25928;51.062;13.752;2022-12-20T10:31:27;5.00;1.00
816;DHT22;25928;51.062;13.752;2022-12-20T10:33:53;4.90;1.00
816;DHT22;25928;51.062;13.752;2022-12-20T10:38:53;4.90;1.00
816;DHT22;25928;51.062;13.752;2022-12-20T10:41:24;5.00;1.00
816;DHT22;25928;51.062;13.752;2022-12-20T10:44:14;5.00;1.00
816;DHT22;25928;51.062;13.752;2022-12-20T10:46:46;5.00;1.00
816;DHT22;25928;51.062;13.752;2022-12-20T10:51:55;5.00;1.00
816;DHT22;25928;51.062;13.752;2022-12-20T10:54:41;5.00;1.00
816;DHT22;25928;51.062;13.752;2022-12-20T10:57:29;5.00;1.00
816;DHT22;25928;51.062;13.752;2022-12-20T11:00:04;5.10;1.00
816;DHT22;25928;51.062;13.752;2022-12-20T11:02:38;5.10;1.00
816;DHT22;25928;51.062;13.752;2022-12-20T11:07:38;5.00;1.00
816;DHT22;25928;51.062;13.752;2022-12-20T11:10:21;5.00;1.00
816;DHT22;25928;51.062;13.752;2022-12-20T11:12:54;4.90;1.00
816;DHT22;25928;51.062;13.752;2022-12-20T11:15:24;4.90;1.00
816;DHT22;25928;51.062;13.752;2022-12-20T11:20:41;4.90;1.00
816;DHT22;25928;51.062;13.752;2022-12-20T11:23:30;4.90;1.00
816;DHT22;25928;51.062;13.752;2022-12-20T11:31:48;5.20;1.00
816;DHT22;25928;51.062;13.752;2022-12-20T11:34:31;5.30;1.00
816;DHT22;25928;51.062;13.752;2022-12-20T11:37:22;5.40;1.00
816;DHT22;25928;51.062;13.752;2022-12-20T11:40:39;5.40;1.00
816;DHT22;25928;51.062;13.752;2022-12-20T11:43:16;5.40;1.00
816;DHT22;25928;51.062;13.752;2022-12-20T11:46:02;5.30;1.00
816;DHT22;25928;51.062;13.752;2022-12-20T11:51:29;5.10;1.00
816;DHT22;25928;51.062;13.752;2022-12-20T11:54:04;5.10;1.00
816;DHT22;25928;51.062;13.752;2022-12-20T11:56:36;5.00;1.00
816;DHT22;25928;51.062;13.752;2022-12-20T11:59:19;6.80;1.00
816;DHT22;25928;51.062;13.752;2022-12-20T12:02:14;5.10;1.00
816;DHT22;25928;51.062;13.752;2022-12-20T12:05:20;5.20;1.00
816;DHT22;25928;51.062;13.752;2022-12-20T12:07:52;5.30;1.00
816;DHT22;25928;51.062;13.752;2022-12-20T12:10:33;5.30;1.00
816;DHT22;25928;51.062;13.752;2022-12-20T12:13:14;5.40;1.00
816;DHT22;25928;51.062;13.752;2022-12-20T12:16:09;5.50;1.00
816;DHT22;25928;51.062;13.752;2022-12-20T12:18:36;5.40;1.00
816;DHT22;25928;51.062;13.752;2022-12-20T12:21:05;5.30;1.00
816;DHT22;25928;51.062;13.752;2022-12-20T12:26:27;5.20;1.00
816;DHT22;25928;51.062;13.752;2022-12-20T12:28:59;5.00;1.00
816;DHT22;25928;51.062;13.752;2022-12-20T12:31:40;4.90;1.00
816;DHT22;25928;51.062;13.752;2022-12-20T12:37:09;4.90;1.00
816;DHT22;25928;51.062;13.752;2022-12-20T12:48:12;4.80;1.00
816;DHT22;25928;51.062;13.752;2022-12-20T12:50:44;4.80;1.00
816;DHT22;25928;51.062;13.752;2022-12-20T12:53:18;4.80;1.00
816;DHT22;25928;51.062;13.752;2022-12-20T12:55:50;4.70;1.00
816;DHT22;25928;51.062;13.752;2022-12-20T13:00:57;4.80;1.00
816;DHT22;25928;51.062;13.752;2022-12-20T13:11:56;4.70;1.00
816;DHT22;25928;51.062;13.752;2022-12-20T13:21:58;4.90;1.00
816;DHT22;25928;51.062;13.752;2022-12-20T13:30:22;4.80;1.00
816;DHT22;25928;51.062;13.752;2022-12-20T13:40:35;4.90;1.00
816;DHT22;25928;51.062;13.752;2022-12-20T13:43:30;4.70;1.00
816;DHT22;25928;51.062;13.752;2022-12-20T13:48:50;4.70;1.00
816;DHT22;25928;51.062;13.752;2022-12-20T13:51:21;4.60;1.00
816;DHT22;25928;51.062;13.752;2022-12-20T13:56:45;4.60;1.00
816;DHT22;25928;51.062;13.752;2022-12-20T13:59:15;4.50;1.00
816;DHT22;25928;51.062;13.752;2022-12-20T14:01:51;4.60;1.00
816;DHT22;25928;51.062;13.752;2022-12-20T14:04:18;4.70;1.00
816;DHT22;25928;51.062;13.752;2022-12-20T14:06:58;4.60;1.00
816;DHT22;25928;51.062;13.752;2022-12-20T14:09:29;4.50;1.00
816;DHT22;25928;51.062;13.752;2022-12-20T14:12:05;4.50;1.00
816;DHT22;25928;51.062;13.752;2022-12-20T14:14:45;4.50;1.00
816;DHT22;25928;51.062;13.752;2022-12-20T14:19:41;4.40;1.00
816;DHT22;25928;51.062;13.752;2022-12-20T14:22:09;4.40;1.00
816;DHT22;25928;51.062;13.752;2022-12-20T14:24:38;4.40;1.00
816;DHT22;25928;51.062;13.752;2022-12-20T14:27:07;4.40;1.00
816;DHT22;25928;51.062;13.752;2022-12-20T14:29:35;4.40;1.00
816;DHT22;25928;51.062;13.752;2022-12-20T14:32:01;4.40;1.00
816;DHT22;25928;51.062;13.752;2022-12-20T14:34:30;4.50;1.00
816;DHT22;25928;51.062;13.752;2022-12-20T14:42:38;3.70;1.00
816;DHT22;25928;51.062;13.752;2022-12-20T14:45:25;4.50;1.00
816;DHT22;25928;51.062;13.752;2022-12-20T14:48:00;4.40;1.00
816;DHT22;25928;51.062;13.752;2022-12-20T14:50:32;4.40;1.00
816;DHT22;25928;51.062;13.752;2022-12-20T14:52:58;4.30;1.00
816;DHT22;25928;51.062;13.752;2022-12-20T14:55:31;4.30;1.00
816;DHT22;25928;51.062;13.752;2022-12-20T14:57:58;4.40;1.00
816;DHT22;25928;51.062;13.752;2022-12-20T15:00:27;4.40;1.00
816;DHT22;25928;51.062;13.752;2022-12-20T15:02:57;4.40;1.00
816;DHT22;25928;51.062;13.752;2022-12-20T15:13:17;4.40;1.00
816;DHT22;25928;51.062;13.752;2022-12-20T15:15:43;4.40;1.00
816;DHT22;25928;51.062;13.752;2022-12-20T15:18:18;4.40;1.00
816;DHT22;25928;51.062;13.752;2022-12-20T15:20:45;4.40;1.00
816;DHT22;25928;51.062;13.752;2022-12-20T15:23:18;4.50;1.00
816;DHT22;25928;51.062;13.752;2022-12-20T15:25:44;4.50;1.00
816;DHT22;25928;51.062;13.752;2022-12-20T15:28:21;4.50;1.00
816;DHT22;25928;51.062;13.752;2022-12-20T15:30:48;4.50;1.00
816;DHT22;25928;51.062;13.752;2022-12-20T15:33:26;4.50;1.00
816;DHT22;25928;51.062;13.752;2022-12-20T15:35:53;4.50;1.00
816;DHT22;25928;51.062;13.752;2022-12-20T15:38:24;4.50;1.00
816;DHT22;25928;51.062;13.752;2022-12-20T15:40:53;4.50;1.00
816;DHT22;25928;51.062;13.752;2022-12-20T15:43:21;4.40;1.00
816;DHT22;25928;51.062;13.752;2022-12-20T15:45:50;4.50;1.00
816;DHT22;25928;51.062;13.752;2022-12-20T15:48:21;4.50;1.00
816;DHT22;25928;51.062;13.752;2022-12-20T15:50:53;4.50;1.00
816;DHT22;25928;51.062;13.752;2022-12-20T15:53:29;4.60;1.00
816;DHT22;25928;51.062;13.752;2022-12-20T15:55:55;4.60;1.00
816;DHT22;25928;51.062;13.752;2022-12-20T15:58:23;4.60;1.00
816;DHT22;25928;51.062;13.752;2022-12-20T16:00:50;4.60;1.00
816;DHT22;25928;51.062;13.752;2022-12-20T16:03:24;4.60;1.00
816;DHT22;25928;51.062;13.752;2022-12-20T16:05:50;4.60;1.00
816;DHT22;25928;51.062;13.752;2022-12-20T16:08:17;4.60;1.00
816;DHT22;25928;51.062;13.752;2022-12-20T16:10:44;4.60;1.00
816;DHT22;25928;51.062;13.752;2022-12-20T16:13:15;4.60;1.00
816;DHT22;25928;51.062;13.752;2022-12-20T16:15:42;4.60;1.00
816;DHT22;25928;51.062;13.752;2022-12-20T16:18:08;4.60;1.00
816;DHT22;25928;51.062;13.752;2022-12-20T16:20:33;4.60;1.00
816;DHT22;25928;51.062;13.752;2022-12-20T16:23:00;4.50;1.00
816;DHT22;25928;51.062;13.752;2022-12-20T16:27:51;4.50;1.00
816;DHT22;25928;51.062;13.752;2022-12-20T16:30:17;4.60;1.00
816;DHT22;25928;51.062;13.752;2022-12-20T16:32:43;4.50;1.00
816;DHT22;25928;51.062;13.752;2022-12-20T16:35:34;4.50;1.00
816;DHT22;25928;51.062;13.752;2022-12-20T16:38:01;4.50;1.00
816;DHT22;25928;51.062;13.752;2022-12-20T16:40:30;4.60;1.00
816;DHT22;25928;51.062;13.752;2022-12-20T16:42:58;4.60;1.00
816;DHT22;25928;51.062;13.752;2022-12-20T16:45:26;4.60;1.00
816;DHT22;25928;51.062;13.752;2022-12-20T16:47:52;4.60;1.00
816;DHT22;25928;51.062;13.752;2022-12-20T16:50:20;4.60;1.00
816;DHT22;25928;51.062;13.752;2022-12-20T16:52:46;4.60;1.00
816;DHT22;25928;51.062;13.752;2022-12-20T16:55:23;4.60;1.00
816;DHT22;25928;51.062;13.752;2022-12-20T16:57:50;4.60;1.00
816;DHT22;25928;51.062;13.752;2022-12-20T17:00:22;4.50;1.00
816;DHT22;25928;51.062;13.752;2022-12-20T17:02:48;4.50;1.00
816;DHT22;25928;51.062;13.752;2022-12-20T17:05:25;4.50;1.00
816;DHT22;25928;51.062;13.752;2022-12-20T17:07:52;4.60;1.00
816;DHT22;25928;51.062;13.752;2022-12-20T17:10:18;4.60;1.00
816;DHT22;25928;51.062;13.752;2022-12-20T17:12:45;4.50;1.00
816;DHT22;25928;51.062;13.752;2022-12-20T17:15:16;4.70;1.00
816;DHT22;25928;51.062;13.752;2022-12-20T17:17:43;4.50;1.00
816;DHT22;25928;51.062;13.752;2022-12-20T17:20:09;4.50;1.00
816;DHT22;25928;51.062;13.752;2022-12-20T17:22:34;4.50;1.00
816;DHT22;25928;51.062;13.752;2022-12-20T17:25:00;4.50;1.00
816;DHT22;25928;51.062;13.752;2022-12-20T17:27:25;4.40;1.00
816;DHT22;25928;51.062;13.752;2022-12-20T17:29:51;4.40;1.00
816;DHT22;25928;51.062;13.752;2022-12-20T17:32:19;4.40;1.00
816;DHT22;25928;51.062;13.752;2022-12-20T17:34:45;4.40;1.00
816;DHT22;25928;51.062;13.752;2022-12-20T17:37:11;4.50;1.00
816;DHT22;25928;51.062;13.752;2022-12-20T17:39:37;4.50;1.00
816;DHT22;25928;51.062;13.752;2022-12-20T17:42:02;4.40;1.00
816;DHT22;25928;51.062;13.752;2022-12-20T17:44:28;4.40;1.00
816;DHT22;25928;51.062;13.752;2022-12-20T17:46:55;4.50;1.00
816;DHT22;25928;51.062;13.752;2022-12-20T17:49:21;4.50;1.00
816;DHT22;25928;51.062;13.752;2022-12-20T17:51:47;4.40;1.00
816;DHT22;25928;51.062;13.752;2022-12-20T17:54:22;4.40;1.00
816;DHT22;25928;51.062;13.752;2022-12-20T17:56:48;4.50;1.00
816;DHT22;25928;51.062;13.752;2022-12-20T17:59:14;4.50;1.00
816;DHT22;25928;51.062;13.752;2022-12-20T18:01:41;4.50;1.00
816;DHT22;25928;51.062;13.752;2022-12-20T18:04:09;4.50;1.00
816;DHT22;25928;51.062;13.752;2022-12-20T18:06:36;4.50;1.00
816;DHT22;25928;51.062;13.752;2022-12-20T18:09:03;4.40;1.00
816;DHT22;25928;51.062;13.752;2022-12-20T18:11:29;4.40;1.00
816;DHT22;25928;51.062;13.752;2022-12-20T18:13:56;4.40;1.00
816;DHT22;25928;51.062;13.752;2022-12-20T18:16:25;4.40;1.00
816;DHT22;25928;51.062;13.752;2022-12-20T18:18:51;4.50;1.00
816;DHT22;25928;51.062;13.752;2022-12-20T18:21:19;4.50;1.00
816;DHT22;25928;51.062;13.752;2022-12-20T18:23:45;4.50;1.00
816;DHT22;25928;51.062;13.752;2022-12-20T18:26:16;4.40;1.00
816;DHT22;25928;51.062;13.752;2022-12-20T18:28:44;4.40;1.00
816;DHT22;25928;51.062;13.752;2022-12-20T18:31:14;4.50;1.00
816;DHT22;25928;51.062;13.752;2022-12-20T18:33:39;4.50;1.00
816;DHT22;25928;51.062;13.752;2022-12-20T18:36:08;4.60;1.00
816;DHT22;25928;51.062;13.752;2022-12-20T18:38:35;4.50;1.00